EZY8437 EGKK-LFLL
Flight info
| Callsign | EZY8437 |
|---|---|
| Flight time | 1h 16m |
| Altitude | 27000 |
| Route | SFD Y47 BENBO L612 HAWKE UL612 OGULO DCT OKASI DCT OKEKO DCT OKEPI DCT MOU/N0347F190 A3 FEDZI |
| Aircraft | A320/M-SDE2E3FGHIRWXY/LB1 |
Departure
| Time | 2026-05-04 11:46 |
|---|---|
| Airport | London Gatwick Airport (EGKK) |
Arrival
| Time | 2026-05-04 13:02 |
|---|---|
| Airport | Lyon Saint-Exupéry Airport (LFLL) |
| Time | Latitude | Longitude | Altitude | Speed | Heading |
|---|---|---|---|---|---|
| 2026-05-04 11:19 | 51.16058 | -0.18008 | 204 ft | 0 kts | 78° |
| 2026-05-04 11:33 | 51.16055 | -0.18028 | 215 ft | 4 kts | 78° |
| 2026-05-04 11:34 | 51.16050 | -0.18070 | 214 ft | 4 kts | 77° |
| 2026-05-04 11:34 | 51.16045 | -0.18104 | 211 ft | 4 kts | 83° |
| 2026-05-04 11:34 | 51.16048 | -0.18142 | 212 ft | 4 kts | 132° |
| 2026-05-04 11:34 | 51.16069 | -0.18162 | 215 ft | 4 kts | 167° |
| 2026-05-04 11:35 | 51.16094 | -0.18170 | 217 ft | 4 kts | 168° |
| 2026-05-04 11:35 | 51.16098 | -0.18172 | 214 ft | 0 kts | 168° |
| 2026-05-04 11:38 | 51.16058 | -0.18158 | 214 ft | 14 kts | 167° |
| 2026-05-04 11:38 | 51.15969 | -0.18126 | 204 ft | 12 kts | 167° |
| 2026-05-04 11:38 | 51.15890 | -0.18098 | 207 ft | 11 kts | 167° |
| 2026-05-04 11:38 | 51.15820 | -0.18073 | 207 ft | 13 kts | 167° |
| 2026-05-04 11:39 | 51.15718 | -0.18042 | 210 ft | 14 kts | 181° |
| 2026-05-04 11:39 | 51.15674 | -0.18155 | 209 ft | 12 kts | 257° |
| 2026-05-04 11:40 | 51.15189 | -0.18284 | 215 ft | 12 kts | 261° |
| 2026-05-04 11:41 | 51.15174 | -0.18411 | 211 ft | 14 kts | 257° |
| 2026-05-04 11:41 | 51.15149 | -0.18594 | 205 ft | 18 kts | 256° |
| 2026-05-04 11:41 | 51.15121 | -0.18772 | 206 ft | 16 kts | 262° |
| 2026-05-04 11:41 | 51.15101 | -0.18956 | 215 ft | 18 kts | 258° |
| 2026-05-04 11:42 | 51.15075 | -0.19134 | 205 ft | 16 kts | 257° |
| 2026-05-04 11:42 | 51.15028 | -0.19265 | 209 ft | 13 kts | 197° |
| 2026-05-04 11:42 | 51.14962 | -0.19301 | 210 ft | 11 kts | 238° |
| 2026-05-04 11:42 | 51.14936 | -0.19479 | 210 ft | 26 kts | 255° |
| 2026-05-04 11:43 | 51.14895 | -0.19777 | 216 ft | 29 kts | 257° |
| 2026-05-04 11:43 | 51.14848 | -0.20102 | 206 ft | 30 kts | 257° |
| 2026-05-04 11:43 | 51.14805 | -0.20433 | 207 ft | 30 kts | 257° |
| 2026-05-04 11:43 | 51.14764 | -0.20738 | 207 ft | 28 kts | 256° |
| 2026-05-04 11:44 | 51.14728 | -0.20987 | 209 ft | 23 kts | 257° |
| 2026-05-04 11:44 | 51.14695 | -0.21232 | 213 ft | 16 kts | 258° |
| 2026-05-04 11:44 | 51.14630 | -0.21332 | 205 ft | 13 kts | 171° |
| 2026-05-04 11:44 | 51.14554 | -0.21272 | 206 ft | 13 kts | 142° |
| 2026-05-04 11:45 | 51.14526 | -0.21139 | 206 ft | 15 kts | 80° |
| 2026-05-04 11:45 | 51.14571 | -0.20815 | 214 ft | 61 kts | 77° |
| 2026-05-04 11:45 | 51.14710 | -0.19816 | 208 ft | 122 kts | 77° |
| 2026-05-04 11:45 | 51.14929 | -0.18222 | 232 ft | 168 kts | 77° |
| 2026-05-04 11:46 | 51.15171 | -0.16414 | 870 ft | 166 kts | 77° |
| 2026-05-04 11:46 | 51.15416 | -0.14616 | 1551 ft | 169 kts | 77° |
| 2026-05-04 11:46 | 51.15685 | -0.12672 | 1901 ft | 191 kts | 77° |
| 2026-05-04 11:46 | 51.15987 | -0.10484 | 2162 ft | 215 kts | 78° |
| 2026-05-04 11:47 | 51.16133 | -0.08056 | 2727 ft | 226 kts | 100° |
| 2026-05-04 11:47 | 51.15702 | -0.05516 | 3147 ft | 249 kts | 102° |
| 2026-05-04 11:47 | 51.15430 | -0.02723 | 3820 ft | 260 kts | 97° |
| 2026-05-04 11:47 | 51.15225 | 0.00157 | 4641 ft | 265 kts | 96° |
| 2026-05-04 11:48 | 51.15032 | 0.03101 | 5450 ft | 270 kts | 96° |
| 2026-05-04 11:48 | 51.14846 | 0.06101 | 6284 ft | 274 kts | 97° |
| 2026-05-04 11:48 | 51.14660 | 0.09145 | 7087 ft | 278 kts | 96° |
| 2026-05-04 11:48 | 51.14475 | 0.12220 | 7880 ft | 281 kts | 97° |
| 2026-05-04 11:49 | 51.13996 | 0.15240 | 8657 ft | 283 kts | 119° |
| 2026-05-04 11:49 | 51.12747 | 0.17632 | 9443 ft | 284 kts | 146° |
| 2026-05-04 11:49 | 51.10957 | 0.18919 | 10165 ft | 287 kts | 167° |
| 2026-05-04 11:49 | 51.08919 | 0.19585 | 10389 ft | 310 kts | 171° |
| 2026-05-04 11:50 | 51.06731 | 0.20071 | 10811 ft | 323 kts | 180° |
| 2026-05-04 11:50 | 51.04473 | 0.19810 | 11467 ft | 328 kts | 186° |
| 2026-05-04 11:50 | 51.02189 | 0.19449 | 12195 ft | 331 kts | 186° |
| 2026-05-04 11:50 | 50.99883 | 0.19075 | 12919 ft | 335 kts | 186° |
| 2026-05-04 11:51 | 50.97553 | 0.18696 | 13635 ft | 339 kts | 186° |
| 2026-05-04 11:51 | 50.95194 | 0.18309 | 14279 ft | 342 kts | 186° |
| 2026-05-04 11:51 | 50.92817 | 0.17919 | 14920 ft | 345 kts | 186° |
| 2026-05-04 11:51 | 50.90422 | 0.17529 | 15560 ft | 347 kts | 186° |
| 2026-05-04 11:52 | 50.88008 | 0.17136 | 16199 ft | 350 kts | 186° |
| 2026-05-04 11:52 | 50.85579 | 0.16742 | 16842 ft | 352 kts | 186° |
| 2026-05-04 11:52 | 50.83131 | 0.16345 | 17474 ft | 355 kts | 185° |
| 2026-05-04 11:52 | 50.80668 | 0.15950 | 18097 ft | 357 kts | 185° |
| 2026-05-04 11:53 | 50.78184 | 0.15553 | 18654 ft | 360 kts | 186° |
| 2026-05-04 11:53 | 50.75685 | 0.15152 | 19201 ft | 362 kts | 186° |
| 2026-05-04 11:53 | 50.73170 | 0.14746 | 19747 ft | 365 kts | 186° |
| 2026-05-04 11:53 | 50.70638 | 0.14338 | 20299 ft | 367 kts | 186° |
| 2026-05-04 11:55 | 50.52532 | 0.11432 | 24070 ft | 382 kts | 187° |
| 2026-05-04 11:55 | 50.49849 | 0.11001 | 24502 ft | 383 kts | 187° |
| 2026-05-04 11:56 | 50.47191 | 0.10576 | 24925 ft | 385 kts | 187° |
| 2026-05-04 11:56 | 50.44519 | 0.10152 | 25332 ft | 386 kts | 187° |
| 2026-05-04 11:56 | 50.41874 | 0.09754 | 25724 ft | 388 kts | 184° |
| 2026-05-04 11:56 | 50.39168 | 0.09889 | 26118 ft | 392 kts | 174° |
| 2026-05-04 11:57 | 50.36504 | 0.10847 | 26494 ft | 396 kts | 163° |
| 2026-05-04 11:57 | 50.33977 | 0.12611 | 26861 ft | 401 kts | 153° |
| 2026-05-04 11:57 | 50.31616 | 0.14973 | 27011 ft | 401 kts | 149° |
| 2026-05-04 11:57 | 50.29337 | 0.17331 | 27023 ft | 386 kts | 149° |
| 2026-05-04 11:58 | 50.27117 | 0.19627 | 27027 ft | 380 kts | 150° |
| 2026-05-04 11:58 | 50.24917 | 0.21892 | 27027 ft | 378 kts | 150° |
| 2026-05-04 11:58 | 50.22721 | 0.24147 | 27027 ft | 378 kts | 150° |
| 2026-05-04 11:58 | 50.20522 | 0.26397 | 27027 ft | 377 kts | 150° |
| 2026-05-04 11:59 | 50.18328 | 0.28641 | 27025 ft | 377 kts | 150° |
| 2026-05-04 11:59 | 50.16142 | 0.30887 | 27027 ft | 376 kts | 149° |
| 2026-05-04 11:59 | 50.13958 | 0.33138 | 27027 ft | 376 kts | 149° |
| 2026-05-04 11:59 | 50.11775 | 0.35388 | 27027 ft | 376 kts | 149° |
| 2026-05-04 12:00 | 50.10330 | 0.36874 | 27026 ft | 376 kts | 149° |
| 2026-05-04 12:00 | 50.08149 | 0.39112 | 27026 ft | 376 kts | 150° |
| 2026-05-04 12:00 | 50.05967 | 0.41342 | 27026 ft | 375 kts | 150° |
| 2026-05-04 12:00 | 50.03780 | 0.43570 | 27026 ft | 375 kts | 150° |
| 2026-05-04 12:01 | 50.01598 | 0.45796 | 27009 ft | 375 kts | 149° |
| 2026-05-04 12:01 | 49.99411 | 0.48026 | 27007 ft | 376 kts | 149° |
| 2026-05-04 12:02 | 49.86289 | 0.61362 | 27016 ft | 375 kts | 149° |
| 2026-05-04 12:03 | 49.84210 | 0.63821 | 27016 ft | 377 kts | 143° |
| 2026-05-04 12:03 | 49.82179 | 0.66389 | 27018 ft | 377 kts | 143° |
| 2026-05-04 12:03 | 49.80149 | 0.68951 | 27017 ft | 377 kts | 143° |
| 2026-05-04 12:03 | 49.78115 | 0.71515 | 27012 ft | 377 kts | 143° |
| 2026-05-04 12:04 | 49.76081 | 0.74076 | 27005 ft | 377 kts | 143° |
| 2026-05-04 12:04 | 49.74048 | 0.76629 | 27008 ft | 377 kts | 143° |
| 2026-05-04 12:04 | 49.72015 | 0.79180 | 27011 ft | 376 kts | 143° |
| 2026-05-04 12:04 | 49.69980 | 0.81728 | 27012 ft | 376 kts | 143° |
| 2026-05-04 12:05 | 49.67946 | 0.84273 | 27004 ft | 376 kts | 143° |
| 2026-05-04 12:05 | 49.65918 | 0.86807 | 27004 ft | 376 kts | 144° |
| 2026-05-04 12:05 | 49.63910 | 0.89309 | 27003 ft | 376 kts | 144° |
| 2026-05-04 12:05 | 49.61879 | 0.91842 | 26985 ft | 376 kts | 144° |
| 2026-05-04 12:06 | 49.59847 | 0.94380 | 26988 ft | 376 kts | 144° |
| 2026-05-04 12:06 | 49.57816 | 0.96915 | 26989 ft | 376 kts | 144° |
| 2026-05-04 12:06 | 49.55757 | 0.99484 | 26991 ft | 376 kts | 144° |
| 2026-05-04 12:06 | 49.53747 | 1.01982 | 26991 ft | 376 kts | 144° |
| 2026-05-04 12:07 | 49.51706 | 1.04510 | 26988 ft | 376 kts | 144° |
| 2026-05-04 12:07 | 49.49669 | 1.07027 | 26988 ft | 376 kts | 144° |
| 2026-05-04 12:07 | 49.47628 | 1.09546 | 26989 ft | 376 kts | 144° |
| 2026-05-04 12:07 | 49.45585 | 1.12067 | 26993 ft | 377 kts | 144° |
| 2026-05-04 12:08 | 49.43543 | 1.14586 | 26996 ft | 377 kts | 144° |
| 2026-05-04 12:08 | 49.41499 | 1.17107 | 26997 ft | 377 kts | 144° |
| 2026-05-04 12:08 | 49.39458 | 1.19625 | 26997 ft | 377 kts | 144° |
| 2026-05-04 12:08 | 49.37416 | 1.22148 | 26997 ft | 377 kts | 144° |
| 2026-05-04 12:09 | 49.35374 | 1.24668 | 26997 ft | 377 kts | 144° |
| 2026-05-04 12:09 | 49.33301 | 1.27214 | 26999 ft | 377 kts | 144° |
| 2026-05-04 12:09 | 49.31282 | 1.29688 | 26998 ft | 377 kts | 144° |
| 2026-05-04 12:09 | 49.29237 | 1.32197 | 26997 ft | 377 kts | 144° |
| 2026-05-04 12:10 | 49.27194 | 1.34703 | 26975 ft | 377 kts | 144° |
| 2026-05-04 12:10 | 49.25146 | 1.37208 | 26974 ft | 377 kts | 144° |
| 2026-05-04 12:10 | 49.23095 | 1.39707 | 26975 ft | 377 kts | 144° |
| 2026-05-04 12:10 | 49.21043 | 1.42199 | 26974 ft | 377 kts | 144° |
| 2026-05-04 12:11 | 49.18989 | 1.44697 | 26976 ft | 377 kts | 144° |
| 2026-05-04 12:11 | 49.16939 | 1.47197 | 26984 ft | 377 kts | 144° |
| 2026-05-04 12:11 | 49.14890 | 1.49697 | 26986 ft | 377 kts | 144° |
| 2026-05-04 12:11 | 49.12839 | 1.52192 | 26987 ft | 377 kts | 144° |
| 2026-05-04 12:12 | 49.10783 | 1.54688 | 26985 ft | 377 kts | 144° |
| 2026-05-04 12:12 | 49.08729 | 1.57179 | 26995 ft | 377 kts | 144° |
| 2026-05-04 12:12 | 49.06675 | 1.59669 | 26987 ft | 377 kts | 144° |
| 2026-05-04 12:12 | 49.04620 | 1.62159 | 26994 ft | 377 kts | 144° |
| 2026-05-04 12:13 | 49.02565 | 1.64645 | 26980 ft | 377 kts | 144° |
| 2026-05-04 12:14 | 48.88506 | 1.81554 | 26963 ft | 378 kts | 144° |
| 2026-05-04 12:15 | 48.86442 | 1.84023 | 26977 ft | 378 kts | 144° |
| 2026-05-04 12:15 | 48.84378 | 1.86494 | 26981 ft | 378 kts | 144° |
| 2026-05-04 12:15 | 48.82313 | 1.88967 | 26974 ft | 378 kts | 144° |
| 2026-05-04 12:15 | 48.80249 | 1.91439 | 26974 ft | 378 kts | 144° |
| 2026-05-04 12:16 | 48.78187 | 1.93905 | 26976 ft | 378 kts | 144° |
| 2026-05-04 12:16 | 48.76124 | 1.96366 | 26976 ft | 378 kts | 144° |
| 2026-05-04 12:16 | 48.74054 | 1.98827 | 26974 ft | 377 kts | 144° |
| 2026-05-04 12:16 | 48.71991 | 2.01275 | 26975 ft | 377 kts | 144° |
| 2026-05-04 12:17 | 48.69923 | 2.03724 | 26976 ft | 377 kts | 144° |
| 2026-05-04 12:17 | 48.67884 | 2.06140 | 26975 ft | 377 kts | 144° |
| 2026-05-04 12:17 | 48.65791 | 2.08622 | 26974 ft | 377 kts | 144° |
| 2026-05-04 12:17 | 48.63724 | 2.11071 | 26975 ft | 377 kts | 144° |
| 2026-05-04 12:18 | 48.61687 | 2.13481 | 26978 ft | 377 kts | 144° |
| 2026-05-04 12:18 | 48.59620 | 2.15926 | 26980 ft | 377 kts | 145° |
| 2026-05-04 12:18 | 48.57551 | 2.18375 | 26965 ft | 378 kts | 144° |
| 2026-05-04 12:18 | 48.55617 | 2.21072 | 26968 ft | 380 kts | 138° |
| 2026-05-04 12:19 | 48.53755 | 2.23909 | 26967 ft | 380 kts | 138° |
| 2026-05-04 12:19 | 48.51894 | 2.26749 | 26968 ft | 380 kts | 138° |
| 2026-05-04 12:19 | 48.50033 | 2.29588 | 26971 ft | 380 kts | 138° |
| 2026-05-04 12:19 | 48.48167 | 2.32419 | 26972 ft | 380 kts | 138° |
| 2026-05-04 12:20 | 48.46301 | 2.35240 | 26970 ft | 380 kts | 138° |
| 2026-05-04 12:20 | 48.44437 | 2.38054 | 26971 ft | 380 kts | 138° |
| 2026-05-04 12:20 | 48.42568 | 2.40877 | 26971 ft | 380 kts | 138° |
| 2026-05-04 12:20 | 48.40700 | 2.43696 | 26972 ft | 380 kts | 139° |
| 2026-05-04 12:21 | 48.38831 | 2.46506 | 26972 ft | 380 kts | 139° |
| 2026-05-04 12:21 | 48.36962 | 2.49317 | 26973 ft | 380 kts | 139° |
| 2026-05-04 12:21 | 48.35093 | 2.52128 | 26977 ft | 381 kts | 139° |
| 2026-05-04 12:21 | 48.33219 | 2.54944 | 26981 ft | 381 kts | 139° |
| 2026-05-04 12:22 | 48.31342 | 2.57762 | 26967 ft | 381 kts | 139° |
| 2026-05-04 12:22 | 48.29460 | 2.60552 | 26967 ft | 379 kts | 142° |
| 2026-05-04 12:22 | 48.27374 | 2.62931 | 26964 ft | 374 kts | 152° |
| 2026-05-04 12:22 | 48.25075 | 2.64711 | 26966 ft | 371 kts | 158° |
| 2026-05-04 12:23 | 48.22722 | 2.66311 | 26962 ft | 371 kts | 158° |
| 2026-05-04 12:23 | 48.20384 | 2.67964 | 26962 ft | 372 kts | 156° |
| 2026-05-04 12:23 | 48.18082 | 2.69747 | 26966 ft | 373 kts | 155° |
| 2026-05-04 12:23 | 48.15805 | 2.71608 | 26970 ft | 373 kts | 154° |
| 2026-05-04 12:24 | 48.13537 | 2.73498 | 26971 ft | 373 kts | 154° |
| 2026-05-04 12:24 | 48.11293 | 2.75360 | 26976 ft | 374 kts | 154° |
| 2026-05-04 12:24 | 48.09015 | 2.77228 | 26973 ft | 373 kts | 155° |
| 2026-05-04 12:24 | 48.06680 | 2.78857 | 26974 ft | 370 kts | 159° |
| 2026-05-04 12:25 | 48.04310 | 2.80370 | 26967 ft | 370 kts | 160° |
| 2026-05-04 12:25 | 48.01939 | 2.81869 | 26968 ft | 370 kts | 160° |
| 2026-05-04 12:25 | 47.99566 | 2.83362 | 26967 ft | 370 kts | 160° |
| 2026-05-04 12:25 | 47.97188 | 2.84862 | 26959 ft | 370 kts | 160° |
| 2026-05-04 12:26 | 47.94816 | 2.86368 | 26974 ft | 371 kts | 160° |
| 2026-05-04 12:26 | 47.92437 | 2.87879 | 26972 ft | 371 kts | 160° |
| 2026-05-04 12:26 | 47.90065 | 2.89389 | 26966 ft | 370 kts | 160° |
| 2026-05-04 12:26 | 47.87697 | 2.90894 | 26964 ft | 370 kts | 160° |
| 2026-05-04 12:27 | 47.85333 | 2.92393 | 26964 ft | 369 kts | 160° |
| 2026-05-04 12:27 | 47.82965 | 2.93890 | 26958 ft | 370 kts | 160° |
| 2026-05-04 12:27 | 47.80602 | 2.95379 | 26933 ft | 369 kts | 160° |
| 2026-05-04 12:27 | 47.78237 | 2.96870 | 26959 ft | 368 kts | 160° |
| 2026-05-04 12:28 | 47.75883 | 2.98352 | 26968 ft | 367 kts | 161° |
| 2026-05-04 12:28 | 47.73536 | 2.99830 | 26976 ft | 366 kts | 161° |
| 2026-05-04 12:28 | 47.71190 | 3.01306 | 26980 ft | 365 kts | 161° |
| 2026-05-04 12:28 | 47.68851 | 3.02774 | 26979 ft | 365 kts | 161° |
| 2026-05-04 12:29 | 47.66511 | 3.04241 | 26977 ft | 365 kts | 161° |
| 2026-05-04 12:29 | 47.64177 | 3.05706 | 26976 ft | 364 kts | 161° |
| 2026-05-04 12:29 | 47.61846 | 3.07168 | 26975 ft | 364 kts | 161° |
| 2026-05-04 12:29 | 47.59514 | 3.08628 | 26973 ft | 363 kts | 161° |
| 2026-05-04 12:30 | 47.57186 | 3.10084 | 26972 ft | 363 kts | 161° |
| 2026-05-04 12:30 | 47.54855 | 3.11541 | 26971 ft | 363 kts | 161° |
| 2026-05-04 12:30 | 47.52528 | 3.12995 | 26970 ft | 363 kts | 161° |
| 2026-05-04 12:30 | 47.50202 | 3.14445 | 26969 ft | 363 kts | 161° |
| 2026-05-04 12:31 | 47.47876 | 3.15893 | 26966 ft | 363 kts | 161° |
| 2026-05-04 12:31 | 47.45546 | 3.17342 | 26968 ft | 363 kts | 161° |
| 2026-05-04 12:31 | 47.43220 | 3.18788 | 26968 ft | 363 kts | 161° |
| 2026-05-04 12:31 | 47.40925 | 3.20212 | 26968 ft | 363 kts | 161° |
| 2026-05-04 12:32 | 47.38594 | 3.21655 | 26968 ft | 363 kts | 161° |
| 2026-05-04 12:32 | 47.33939 | 3.24533 | 26962 ft | 363 kts | 161° |
| 2026-05-04 12:32 | 47.31608 | 3.25974 | 26960 ft | 363 kts | 161° |
| 2026-05-04 12:33 | 47.29284 | 3.27410 | 26959 ft | 362 kts | 161° |
| 2026-05-04 12:33 | 47.26957 | 3.28848 | 26957 ft | 362 kts | 161° |
| 2026-05-04 12:33 | 47.24634 | 3.30284 | 26956 ft | 362 kts | 161° |
| 2026-05-04 12:33 | 47.22310 | 3.31717 | 26942 ft | 362 kts | 161° |
| 2026-05-04 12:34 | 47.19983 | 3.33148 | 26944 ft | 362 kts | 161° |
| 2026-05-04 12:34 | 47.17657 | 3.34574 | 26948 ft | 362 kts | 161° |
| 2026-05-04 12:34 | 47.15329 | 3.36000 | 26951 ft | 362 kts | 161° |
| 2026-05-04 12:34 | 47.13004 | 3.37424 | 26947 ft | 362 kts | 161° |
| 2026-05-04 12:35 | 47.10680 | 3.38849 | 26956 ft | 362 kts | 161° |
| 2026-05-04 12:35 | 47.08353 | 3.40277 | 26957 ft | 362 kts | 161° |
| 2026-05-04 12:35 | 47.06032 | 3.41703 | 26958 ft | 362 kts | 161° |
| 2026-05-04 12:35 | 47.03710 | 3.43125 | 26959 ft | 362 kts | 161° |
| 2026-05-04 12:36 | 47.01385 | 3.44542 | 26956 ft | 362 kts | 161° |
| 2026-05-04 12:36 | 46.99062 | 3.45953 | 26958 ft | 362 kts | 161° |
| 2026-05-04 12:36 | 46.96736 | 3.47367 | 26957 ft | 362 kts | 161° |
| 2026-05-04 12:36 | 46.94415 | 3.48782 | 26958 ft | 362 kts | 161° |
| 2026-05-04 12:37 | 46.92093 | 3.50195 | 26962 ft | 362 kts | 161° |
| 2026-05-04 12:37 | 46.89767 | 3.51611 | 26949 ft | 362 kts | 161° |
| 2026-05-04 12:37 | 46.87443 | 3.53025 | 26949 ft | 362 kts | 161° |
| 2026-05-04 12:37 | 46.85111 | 3.54438 | 26949 ft | 363 kts | 161° |
| 2026-05-04 12:38 | 46.82783 | 3.55850 | 26947 ft | 363 kts | 161° |
| 2026-05-04 12:38 | 46.80452 | 3.57266 | 26946 ft | 362 kts | 161° |
| 2026-05-04 12:38 | 46.78153 | 3.58658 | 26948 ft | 362 kts | 161° |
| 2026-05-04 12:38 | 46.75824 | 3.60063 | 26949 ft | 363 kts | 161° |
| 2026-05-04 12:39 | 46.73471 | 3.61479 | 26968 ft | 371 kts | 161° |
| 2026-05-04 12:39 | 46.71086 | 3.62915 | 26648 ft | 368 kts | 161° |
| 2026-05-04 12:39 | 46.68724 | 3.64307 | 25730 ft | 364 kts | 162° |
| 2026-05-04 12:39 | 46.66387 | 3.65612 | 25156 ft | 353 kts | 162° |
| 2026-05-04 12:40 | 46.64134 | 3.66837 | 24713 ft | 339 kts | 163° |
| 2026-05-04 12:40 | 46.61960 | 3.68006 | 24261 ft | 327 kts | 163° |
| 2026-05-04 12:40 | 46.59864 | 3.69131 | 23829 ft | 315 kts | 163° |
| 2026-05-04 12:40 | 46.57842 | 3.70222 | 23381 ft | 305 kts | 163° |
| 2026-05-04 12:41 | 46.55868 | 3.71291 | 22933 ft | 302 kts | 163° |
| 2026-05-04 12:41 | 46.53903 | 3.72355 | 22535 ft | 301 kts | 163° |
| 2026-05-04 12:41 | 46.51940 | 3.73419 | 22137 ft | 302 kts | 163° |
| 2026-05-04 12:41 | 46.49979 | 3.74485 | 21733 ft | 300 kts | 163° |
| 2026-05-04 12:42 | 46.48029 | 3.75548 | 21354 ft | 299 kts | 163° |
| 2026-05-04 12:42 | 46.46082 | 3.76606 | 20960 ft | 298 kts | 163° |
| 2026-05-04 12:42 | 46.44142 | 3.77678 | 20568 ft | 299 kts | 162° |
| 2026-05-04 12:42 | 46.42204 | 3.78793 | 20173 ft | 300 kts | 162° |
| 2026-05-04 12:43 | 46.40271 | 3.79922 | 19753 ft | 300 kts | 161° |
| 2026-05-04 12:43 | 46.38343 | 3.81071 | 19366 ft | 301 kts | 158° |
| 2026-05-04 12:43 | 46.36543 | 3.82655 | 18970 ft | 305 kts | 146° |
| 2026-05-04 12:43 | 46.34998 | 3.84845 | 18625 ft | 319 kts | 133° |
| 2026-05-04 12:44 | 46.33639 | 3.87416 | 18274 ft | 323 kts | 132° |
| 2026-05-04 12:44 | 46.32280 | 3.89996 | 17890 ft | 322 kts | 132° |
| 2026-05-04 12:44 | 46.30920 | 3.92563 | 17533 ft | 321 kts | 132° |
| 2026-05-04 12:44 | 46.29564 | 3.95117 | 17176 ft | 320 kts | 132° |
| 2026-05-04 12:45 | 46.28213 | 3.97661 | 16833 ft | 318 kts | 132° |
| 2026-05-04 12:45 | 46.26869 | 4.00188 | 16475 ft | 316 kts | 132° |
| 2026-05-04 12:45 | 46.25535 | 4.02692 | 16146 ft | 313 kts | 132° |
| 2026-05-04 12:45 | 46.24208 | 4.05180 | 15807 ft | 312 kts | 132° |
| 2026-05-04 12:46 | 46.22889 | 4.07651 | 15459 ft | 310 kts | 132° |
| 2026-05-04 12:46 | 46.21572 | 4.10119 | 15126 ft | 309 kts | 132° |
| 2026-05-04 12:46 | 46.20263 | 4.12576 | 14781 ft | 309 kts | 132° |
| 2026-05-04 12:46 | 46.18955 | 4.15028 | 14443 ft | 307 kts | 132° |
| 2026-05-04 12:47 | 46.17658 | 4.17462 | 14122 ft | 305 kts | 132° |
| 2026-05-04 12:47 | 46.16363 | 4.19887 | 13781 ft | 304 kts | 132° |
| 2026-05-04 12:47 | 46.15075 | 4.22291 | 13412 ft | 301 kts | 132° |
| 2026-05-04 12:47 | 46.14234 | 4.23861 | 13063 ft | 297 kts | 132° |
| 2026-05-04 12:48 | 46.12976 | 4.26212 | 12428 ft | 295 kts | 132° |
| 2026-05-04 12:48 | 46.11715 | 4.28558 | 12012 ft | 295 kts | 132° |
| 2026-05-04 12:48 | 46.10465 | 4.30884 | 11474 ft | 293 kts | 131° |
| 2026-05-04 12:48 | 46.09215 | 4.33203 | 10992 ft | 292 kts | 131° |
| 2026-05-04 12:49 | 46.07972 | 4.35510 | 10537 ft | 291 kts | 131° |
| 2026-05-04 12:49 | 46.06733 | 4.37813 | 10079 ft | 291 kts | 130° |
| 2026-05-04 12:49 | 46.05497 | 4.40110 | 9594 ft | 289 kts | 131° |
| 2026-05-04 12:49 | 46.04268 | 4.42389 | 9146 ft | 288 kts | 131° |
| 2026-05-04 12:50 | 46.03043 | 4.44652 | 8822 ft | 285 kts | 131° |
| 2026-05-04 12:50 | 46.01830 | 4.46896 | 8447 ft | 283 kts | 131° |
| 2026-05-04 12:50 | 46.00624 | 4.49124 | 8063 ft | 281 kts | 131° |
| 2026-05-04 12:50 | 45.99507 | 4.51427 | 7715 ft | 282 kts | 124° |
| 2026-05-04 12:51 | 45.98485 | 4.53819 | 7530 ft | 280 kts | 124° |
| 2026-05-04 12:51 | 45.97463 | 4.56201 | 7405 ft | 280 kts | 124° |
| 2026-05-04 12:51 | 45.96447 | 4.58582 | 7281 ft | 280 kts | 122° |
| 2026-05-04 12:51 | 45.95709 | 4.61171 | 7132 ft | 282 kts | 107° |
| 2026-05-04 12:52 | 45.95418 | 4.63952 | 6735 ft | 282 kts | 98° |
| 2026-05-04 12:52 | 45.95260 | 4.66755 | 6366 ft | 281 kts | 97° |
| 2026-05-04 12:52 | 45.95101 | 4.69512 | 6051 ft | 279 kts | 98° |
| 2026-05-04 12:52 | 45.94939 | 4.72318 | 5651 ft | 277 kts | 98° |
| 2026-05-04 12:53 | 45.94780 | 4.75034 | 5271 ft | 276 kts | 100° |
| 2026-05-04 12:53 | 45.94617 | 4.77764 | 4918 ft | 273 kts | 101° |
| 2026-05-04 12:53 | 45.94455 | 4.80468 | 4527 ft | 270 kts | 101° |
| 2026-05-04 12:53 | 45.94292 | 4.83144 | 4156 ft | 267 kts | 101° |
| 2026-05-04 12:54 | 45.94132 | 4.85787 | 3781 ft | 264 kts | 101° |
| 2026-05-04 12:54 | 45.93972 | 4.88403 | 3396 ft | 262 kts | 101° |
| 2026-05-04 12:54 | 45.93811 | 4.90997 | 3048 ft | 258 kts | 100° |
| 2026-05-04 12:54 | 45.93657 | 4.93497 | 2994 ft | 243 kts | 101° |
| 2026-05-04 12:55 | 45.93521 | 4.95798 | 2992 ft | 219 kts | 101° |
| 2026-05-04 12:55 | 45.93395 | 4.97905 | 2997 ft | 206 kts | 101° |
| 2026-05-04 12:55 | 45.93268 | 4.99928 | 2998 ft | 201 kts | 102° |
| 2026-05-04 12:55 | 45.93141 | 5.01907 | 3004 ft | 195 kts | 102° |
| 2026-05-04 12:56 | 45.92905 | 5.03693 | 3010 ft | 170 kts | 117° |
| 2026-05-04 12:56 | 45.92392 | 5.05083 | 2991 ft | 150 kts | 134° |
| 2026-05-04 12:56 | 45.91668 | 5.06144 | 2995 ft | 147 kts | 148° |
| 2026-05-04 12:56 | 45.90786 | 5.06861 | 2994 ft | 145 kts | 162° |
| 2026-05-04 12:57 | 45.89812 | 5.07195 | 3001 ft | 145 kts | 175° |
| 2026-05-04 12:57 | 45.88805 | 5.07318 | 2997 ft | 145 kts | 176° |
| 2026-05-04 12:57 | 45.87804 | 5.07440 | 3011 ft | 144 kts | 176° |
| 2026-05-04 12:57 | 45.86832 | 5.07559 | 3008 ft | 140 kts | 176° |
| 2026-05-04 12:58 | 45.85863 | 5.07678 | 3005 ft | 139 kts | 176° |
| 2026-05-04 12:58 | 45.84904 | 5.07795 | 2982 ft | 138 kts | 176° |
| 2026-05-04 12:58 | 45.83949 | 5.07912 | 2871 ft | 138 kts | 176° |
| 2026-05-04 12:58 | 45.82998 | 5.08028 | 2719 ft | 137 kts | 175° |
| 2026-05-04 12:59 | 45.82051 | 5.08144 | 2561 ft | 137 kts | 175° |
| 2026-05-04 12:59 | 45.81107 | 5.08259 | 2368 ft | 137 kts | 175° |
| 2026-05-04 12:59 | 45.80164 | 5.08374 | 2189 ft | 135 kts | 175° |
| 2026-05-04 12:59 | 45.79229 | 5.08488 | 2006 ft | 134 kts | 175° |
| 2026-05-04 13:00 | 45.78299 | 5.08601 | 1820 ft | 134 kts | 175° |
| 2026-05-04 13:00 | 45.77364 | 5.08715 | 1611 ft | 134 kts | 174° |
| 2026-05-04 13:00 | 45.76433 | 5.08829 | 1430 ft | 134 kts | 174° |
| 2026-05-04 13:00 | 45.75502 | 5.08942 | 1237 ft | 133 kts | 174° |
| 2026-05-04 13:01 | 45.74576 | 5.09055 | 1020 ft | 135 kts | 174° |
| 2026-05-04 13:01 | 45.73647 | 5.09177 | 836 ft | 134 kts | 175° |
| 2026-05-04 13:01 | 45.72893 | 5.09255 | 779 ft | 117 kts | 176° |
| 2026-05-04 13:01 | 45.72239 | 5.09341 | 787 ft | 70 kts | 175° |
| 2026-05-04 13:02 | 45.71909 | 5.09377 | 791 ft | 34 kts | 181° |
| 2026-05-04 13:02 | 45.71731 | 5.09316 | 795 ft | 21 kts | 200° |
| 2026-05-04 13:02 | 45.71639 | 5.09206 | 797 ft | 15 kts | 251° |
| 2026-05-04 13:02 | 45.71628 | 5.09090 | 799 ft | 9 kts | 265° |
| 2026-05-04 13:03 | 45.71624 | 5.09007 | 800 ft | 10 kts | 267° |
| 2026-05-04 13:03 | 45.71617 | 5.08892 | 800 ft | 14 kts | 264° |
| 2026-05-04 13:03 | 45.71607 | 5.08732 | 799 ft | 18 kts | 263° |
| 2026-05-04 13:03 | 45.71598 | 5.08568 | 799 ft | 17 kts | 269° |
| 2026-05-04 13:04 | 45.71672 | 5.08467 | 798 ft | 14 kts | 311° |
| 2026-05-04 13:04 | 45.71676 | 5.08337 | 798 ft | 14 kts | 264° |
| 2026-05-04 13:04 | 45.71658 | 5.08281 | 798 ft | 2 kts | 198° |
| 2026-05-04 13:04 | 45.71648 | 5.08276 | 798 ft | 5 kts | 199° |
| 2026-05-04 13:05 | 45.71613 | 5.08267 | 798 ft | 2 kts | 188° |
| 2026-05-04 13:05 | 45.71603 | 5.08268 | 798 ft | 2 kts | 176° |
| 2026-05-04 13:05 | 45.71597 | 5.08270 | 798 ft | 1 kts | 171° |
| 2026-05-04 13:05 | 45.71593 | 5.08271 | 798 ft | 0 kts | 171° |